Time;durP1;ratioP1;P1;durP2;ratioP2;P2;SDS_P1;SDS_P2;PMS_P1;PMS_P2;Temp;Humidity;BMP_temperature;BMP_pressure;BME280_temperature;BME280_humidity;BME280_pressure;Samples;Min_cycle;Max_cycle;Signal;HPM_P1;HPM_P2
2022/03/24 00:00:19;;;;;;;33.63;17.25;;;5.70;91.70;;;;;;5030979;28;20029;-56
2022/03/24 00:02:45;;;;;;;33.25;16.80;;;5.70;91.90;;;;;;5033573;28;20033;-55
2022/03/24 00:05:12;;;;;;;33.47;18.38;;;5.60;92.10;;;;;;5031021;28;20033;-57
2022/03/24 00:07:38;;;;;;;32.97;18.58;;;5.60;92.70;;;;;;5031205;28;20025;-57
2022/03/24 00:10:05;;;;;;;34.40;19.95;;;5.60;92.90;;;;;;5031652;28;20026;-56
2022/03/24 00:12:31;;;;;;;36.50;18.73;;;5.50;93.10;;;;;;5031516;28;20021;-57
2022/03/24 00:14:56;;;;;;;39.58;21.08;;;5.50;93.50;;;;;;5018092;28;20046;-55
2022/03/24 00:17:22;;;;;;;33.70;18.48;;;5.50;93.70;;;;;;5034006;28;20035;-54
2022/03/24 00:19:47;;;;;;;41.22;18.10;;;5.50;93.70;;;;;;5032060;28;20428;-54
2022/03/24 00:22:13;;;;;;;36.80;17.42;;;5.40;93.80;;;;;;5033867;28;20033;-57
2022/03/24 00:24:40;;;;;;;39.28;17.63;;;5.40;94.00;;;;;;5033475;28;20083;-55
2022/03/24 00:27:05;;;;;;;38.75;18.08;;;5.30;94.00;;;;;;5037779;28;20029;-53
2022/03/24 00:29:31;;;;;;;39.42;17.38;;;5.30;93.90;;;;;;5034309;28;20033;-57
2022/03/24 00:31:56;;;;;;;43.25;19.17;;;5.40;93.70;;;;;;5048533;28;20501;-56
2022/03/24 00:34:22;;;;;;;33.53;17.40;;;5.40;93.70;;;;;;5032193;28;20056;-55
2022/03/24 00:36:48;;;;;;;31.45;18.23;;;5.30;93.50;;;;;;5040044;28;20033;-57
2022/03/24 00:39:14;;;;;;;40.10;20.42;;;5.30;93.90;;;;;;5034043;28;20026;-55
2022/03/24 00:41:40;;;;;;;36.80;17.75;;;5.30;94.00;;;;;;5009993;28;20030;-56
2022/03/24 00:44:07;;;;;;;41.08;19.65;;;5.30;94.10;;;;;;5036629;28;20021;-56
2022/03/24 00:46:33;;;;;;;41.45;19.33;;;5.20;94.20;;;;;;5028403;28;20025;-54
2022/03/24 00:48:59;;;;;;;40.35;21.23;;;5.20;94.50;;;;;;5031462;28;20404;-52
2022/03/24 00:51:24;;;;;;;48.97;20.77;;;5.10;94.80;;;;;;5031926;28;20036;-56
2022/03/24 00:53:50;;;;;;;42.47;20.25;;;5.00;95.00;;;;;;5031260;28;20022;-56
2022/03/24 00:56:17;;;;;;;37.88;19.33;;;4.90;95.10;;;;;;5032323;28;20053;-57
2022/03/24 00:58:43;;;;;;;36.25;19.02;;;4.90;95.10;;;;;;5028064;28;20120;-56
2022/03/24 01:01:12;;;;;;;33.38;19.40;;;4.80;95.40;;;;;;5030942;28;20116;-56
2022/03/24 01:03:38;;;;;;;41.85;19.98;;;4.80;95.50;;;;;;5029219;28;20022;-54
2022/03/24 01:06:06;;;;;;;41.88;19.40;;;4.80;95.50;;;;;;5012582;28;20025;-55
2022/03/24 01:08:32;;;;;;;37.25;18.65;;;4.80;95.80;;;;;;5027551;28;20087;-56
2022/03/24 01:10:58;;;;;;;36.28;18.13;;;4.80;95.90;;;;;;5029424;28;20025;-56
2022/03/24 01:13:23;;;;;;;35.90;18.95;;;4.80;95.90;;;;;;5028598;28;20049;-56
2022/03/24 01:15:50;;;;;;;35.28;17.98;;;4.80;96.10;;;;;;5028865;28;20030;-58
2022/03/24 01:18:19;;;;;;;34.63;17.65;;;4.80;96.10;;;;;;5014287;28;20415;-55
2022/03/24 01:20:46;;;;;;;39.22;18.88;;;4.80;96.10;;;;;;5028439;28;20111;-53
2022/03/24 01:23:12;;;;;;;41.75;20.60;;;4.80;96.10;;;;;;5029140;28;20032;-58
2022/03/24 01:25:40;;;;;;;37.10;19.75;;;4.80;96.10;;;;;;5027782;28;20026;-57
2022/03/24 01:28:05;;;;;;;40.15;20.77;;;4.80;96.20;;;;;;5024111;28;20510;-56
2022/03/24 01:30:31;;;;;;;39.65;20.48;;;4.70;96.50;;;;;;5031721;28;20100;-55
2022/03/24 01:32:56;;;;;;;42.10;23.13;;;4.70;96.50;;;;;;5031641;28;20036;-56
2022/03/24 01:35:23;;;;;;;46.03;22.45;;;4.60;96.50;;;;;;5029146;28;20029;-55
2022/03/24 01:37:48;;;;;;;47.78;23.38;;;4.60;96.70;;;;;;5032136;28;20074;-55
2022/03/24 01:40:16;;;;;;;46.08;22.27;;;4.60;96.60;;;;;;5027609;28;20026;-57
2022/03/24 01:42:43;;;;;;;50.10;24.77;;;4.50;96.90;;;;;;5026784;28;20033;-55
2022/03/24 01:45:09;;;;;;;53.30;25.48;;;4.40;97.30;;;;;;5031659;28;20078;-56
2022/03/24 01:47:35;;;;;;;47.55;23.02;;;4.30;97.40;;;;;;5031377;28;20033;-55
2022/03/24 01:50:02;;;;;;;47.80;25.25;;;4.30;97.80;;;;;;5028644;28;20033;-54
2022/03/24 01:52:28;;;;;;;53.55;26.48;;;4.20;98.20;;;;;;5028817;28;20036;-54
2022/03/24 01:54:56;;;;;;;52.47;26.17;;;4.20;98.50;;;;;;5028074;28;20029;-56
2022/03/24 01:57:23;;;;;;;54.53;26.08;;;4.20;98.80;;;;;;5047180;23;20177;-56
2022/03/24 01:59:50;;;;;;;42.22;22.17;;;4.10;98.80;;;;;;5027075;28;20022;-55
2022/03/24 02:02:16;;;;;;;44.00;22.33;;;4.10;98.90;;;;;;5035397;28;20557;-54
2022/03/24 02:04:43;;;;;;;44.58;21.95;;;4.10;99.00;;;;;;5024197;28;20104;-55
2022/03/24 02:07:10;;;;;;;40.30;22.42;;;4.00;99.10;;;;;;5027092;28;20116;-54
2022/03/24 02:09:36;;;;;;;45.63;23.27;;;3.90;99.40;;;;;;5012425;28;20384;-54
2022/03/24 02:12:07;;;;;;;45.33;20.23;;;3.90;99.70;;;;;;5009190;28;20501;-54
2022/03/24 02:14:34;;;;;;;43.10;20.25;;;3.90;99.80;;;;;;5009281;28;20084;-57
2022/03/24 02:17:00;;;;;;;38.20;20.73;;;3.90;99.80;;;;;;4998190;28;20528;-54
2022/03/24 02:19:27;;;;;;;37.88;20.17;;;3.90;99.90;;;;;;5010057;28;20033;-54
2022/03/24 02:21:54;;;;;;;34.55;19.30;;;3.80;99.90;;;;;;5003105;28;20095;-57
2022/03/24 02:24:23;;;;;;;36.10;19.42;;;3.80;99.90;;;;;;5006873;28;20029;-54
2022/03/24 02:26:48;;;;;;;40.95;18.92;;;3.70;99.90;;;;;;5011724;28;20531;-55
2022/03/24 02:29:16;;;;;;;38.33;20.02;;;3.70;99.90;;;;;;5011784;28;20038;-57
2022/03/24 02:31:50;;;;;;;36.58;19.67;;;3.70;99.90;;;;;;5013003;28;20029;-55
2022/03/24 02:37:05;;;;;;;34.25;18.25;;;3.60;99.90;;;;;;5013075;28;20041;-53
2022/03/24 02:39:30;;;;;;;37.20;19.48;;;3.60;99.90;;;;;;5010809;28;20029;-55
2022/03/24 02:41:58;;;;;;;35.97;18.30;;;3.50;99.90;;;;;;5010582;28;20030;-55
2022/03/24 02:44:27;;;;;;;38.97;19.05;;;3.50;99.90;;;;;;5011001;28;20485;-55
2022/03/24 02:46:55;;;;;;;38.92;19.83;;;3.50;99.90;;;;;;5012422;28;20030;-54
2022/03/24 02:49:24;;;;;;;36.55;18.33;;;3.50;99.90;;;;;;5012467;28;20164;-53
2022/03/24 02:51:54;;;;;;;36.58;17.38;;;3.50;99.90;;;;;;5011709;28;20075;-57
2022/03/24 02:54:21;;;;;;;34.67;18.50;;;3.50;99.90;;;;;;5012468;28;20032;-56
2022/03/24 02:56:47;;;;;;;36.85;19.13;;;3.50;99.90;;;;;;5013166;28;20494;-52
2022/03/24 02:59:13;;;;;;;42.13;19.85;;;3.40;99.90;;;;;;5011964;28;20040;-56
2022/03/24 03:01:47;;;;;;;38.53;19.63;;;3.40;99.90;;;;;;5012146;28;20026;-57
2022/03/24 03:04:13;;;;;;;39.85;20.55;;;3.30;99.90;;;;;;5011876;28;20488;-56
2022/03/24 03:06:39;;;;;;;42.00;20.92;;;3.30;99.90;;;;;;5011701;28;20030;-54
2022/03/24 03:09:05;;;;;;;52.95;18.35;;;3.30;99.90;;;;;;5012189;28;20037;-56
2022/03/24 03:11:31;;;;;;;31.88;18.77;;;3.30;99.90;;;;;;5000892;28;20078;-57
2022/03/24 03:14:01;;;;;;;35.42;19.02;;;3.20;99.90;;;;;;5008676;28;20104;-55
2022/03/24 03:16:28;;;;;;;40.25;18.95;;;3.20;99.90;;;;;;5011868;28;20489;-53
2022/03/24 03:18:55;;;;;;;40.85;21.10;;;3.10;99.90;;;;;;4995179;28;20049;-53
2022/03/24 03:21:21;;;;;;;42.65;20.90;;;3.20;99.90;;;;;;5011369;28;20239;-55
2022/03/24 03:23:47;;;;;;;44.88;21.33;;;3.20;99.90;;;;;;5011566;28;20034;-55
2022/03/24 03:26:18;;;;;;;43.70;22.17;;;3.20;99.90;;;;;;5008984;28;20045;-54
2022/03/24 03:28:43;;;;;;;37.63;20.42;;;3.20;99.90;;;;;;5003663;28;20034;-56
2022/03/24 03:31:09;;;;;;;41.38;20.92;;;3.20;99.90;;;;;;5010707;28;20030;-53
2022/03/24 03:33:36;;;;;;;41.15;22.02;;;3.10;99.90;;;;;;5025159;28;20044;-53
2022/03/24 03:36:03;;;;;;;49.38;23.98;;;3.10;99.90;;;;;;5010886;28;20032;-51
2022/03/24 03:38:29;;;;;;;46.05;23.38;;;3.10;99.90;;;;;;5011303;28;20030;-56
2022/03/24 03:40:56;;;;;;;45.00;22.65;;;3.10;99.90;;;;;;5011603;28;20034;-56
2022/03/24 03:43:22;;;;;;;51.40;23.33;;;3.10;99.90;;;;;;5010102;28;20042;-55
2022/03/24 03:45:49;;;;;;;40.13;20.50;;;3.00;99.90;;;;;;5011714;28;20029;-57
2022/03/24 03:48:14;;;;;;;39.22;20.42;;;2.90;99.90;;;;;;5009208;28;20070;-56
2022/03/24 03:50:41;;;;;;;43.47;20.98;;;2.90;99.90;;;;;;5010625;28;20120;-53
2022/03/24 03:53:08;;;;;;;41.92;20.80;;;2.80;99.90;;;;;;5011555;28;20112;-53
2022/03/24 03:55:34;;;;;;;40.95;21.13;;;2.70;99.90;;;;;;5011175;28;20034;-54
2022/03/24 03:58:00;;;;;;;43.15;21.73;;;2.70;99.90;;;;;;5011033;28;20037;-55
2022/03/24 04:03:10;;;;;;;44.45;21.05;;;2.80;99.90;;;;;;5010639;28;20076;-56
2022/03/24 04:05:36;;;;;;;42.00;21.15;;;2.80;99.90;;;;;;5011127;28;20444;-56
2022/03/24 04:08:01;;;;;;;45.15;20.92;;;2.90;99.90;;;;;;5011413;28;20025;-54
2022/03/24 04:10:27;;;;;;;41.45;21.15;;;2.90;99.90;;;;;;5010974;28;20083;-52
2022/03/24 04:12:57;;;;;;;33.30;19.50;;;2.80;99.90;;;;;;5009545;28;20029;-57
2022/03/24 04:15:24;;;;;;;37.10;19.90;;;2.80;99.90;;;;;;5010956;28;20101;-55
2022/03/24 04:17:53;;;;;;;35.05;19.63;;;2.80;99.90;;;;;;4995112;28;20053;-54
2022/03/24 04:20:22;;;;;;;41.33;18.83;;;2.70;99.90;;;;;;5010627;28;20481;-58
2022/03/24 04:22:52;;;;;;;38.67;20.30;;;2.70;99.90;;;;;;5010912;28;20037;-54
2022/03/24 04:25:18;;;;;;;46.70;19.13;;;2.60;99.90;;;;;;5008486;28;20508;-55
2022/03/24 04:27:44;;;;;;;36.28;18.98;;;2.50;99.90;;;;;;5009544;28;20404;-58
2022/03/24 04:30:14;;;;;;;44.92;20.38;;;2.50;99.90;;;;;;5010429;28;20037;-57
2022/03/24 04:32:39;;;;;;;38.80;19.73;;;2.40;99.90;;;;;;5010180;28;20400;-54
2022/03/24 04:35:06;;;;;;;32.85;18.40;;;2.40;99.90;;;;;;5011103;28;20022;-57
2022/03/24 04:37:32;;;;;;;34.40;17.83;;;2.30;99.90;;;;;;5009566;28;20018;-55
2022/03/24 04:39:58;;;;;;;41.92;21.60;;;2.30;99.90;;;;;;5010580;28;20523;-54
2022/03/24 04:42:23;;;;;;;42.08;19.73;;;2.30;99.90;;;;;;5008523;28;20021;-53
2022/03/24 04:44:49;;;;;;;40.50;19.75;;;2.30;99.90;;;;;;5017535;28;20044;-55
2022/03/24 04:47:15;;;;;;;47.20;21.48;;;2.30;99.90;;;;;;5010162;28;20029;-56
2022/03/24 04:49:41;;;;;;;45.92;22.92;;;2.30;99.90;;;;;;5009865;28;20033;-54
2022/03/24 04:52:07;;;;;;;43.72;21.77;;;2.30;99.90;;;;;;5010218;28;20084;-55
2022/03/24 04:54:34;;;;;;;42.72;20.63;;;2.40;99.90;;;;;;5010371;28;20026;-57
2022/03/24 04:56:59;;;;;;;39.88;20.90;;;2.40;99.90;;;;;;5010470;28;20521;-54
2022/03/24 04:59:25;;;;;;;45.00;20.73;;;2.40;99.90;;;;;;5009932;28;20025;-52
2022/03/24 05:01:50;;;;;;;47.42;21.83;;;2.40;99.90;;;;;;5010468;28;20038;-58
2022/03/24 05:04:16;;;;;;;40.85;21.13;;;2.30;99.90;;;;;;5008422;28;20033;-57
2022/03/24 05:06:42;;;;;;;48.13;23.17;;;2.30;99.90;;;;;;5010347;28;20030;-53
2022/03/24 05:09:08;;;;;;;40.97;20.50;;;2.30;99.90;;;;;;5010048;28;20485;-55
2022/03/24 05:11:34;;;;;;;44.55;19.20;;;2.30;99.90;;;;;;4996157;28;20038;-56
2022/03/24 05:14:01;;;;;;;43.45;21.45;;;2.30;99.90;;;;;;5006952;28;20470;-56
2022/03/24 05:16:27;;;;;;;44.30;22.75;;;2.30;99.90;;;;;;5010580;28;20025;-55
2022/03/24 05:18:53;;;;;;;44.05;19.88;;;2.30;99.90;;;;;;4992673;28;20249;-52
2022/03/24 05:21:19;;;;;;;44.83;22.35;;;2.30;99.90;;;;;;5009917;28;20592;-56
2022/03/24 05:23:45;;;;;;;42.88;19.98;;;2.30;99.90;;;;;;5009812;28;20022;-57
2022/03/24 05:26:10;;;;;;;39.83;20.30;;;2.30;99.90;;;;;;5005991;28;20504;-55
2022/03/24 05:28:36;;;;;;;47.90;22.60;;;2.30;99.90;;;;;;5009616;28;20111;-56
2022/03/24 05:31:02;;;;;;;46.03;21.20;;;2.20;99.90;;;;;;5009277;28;20029;-53
2022/03/24 05:33:27;;;;;;;47.65;22.60;;;2.20;99.90;;;;;;5009512;28;20096;-57
2022/03/24 05:35:53;;;;;;;40.88;21.05;;;2.20;99.90;;;;;;5008202;28;20038;-54
2022/03/24 05:38:19;;;;;;;45.33;22.42;;;2.20;99.90;;;;;;5008996;28;20026;-57
2022/03/24 05:40:44;;;;;;;45.90;23.23;;;2.20;99.90;;;;;;5010296;28;20061;-55
2022/03/24 05:43:10;;;;;;;39.58;21.42;;;2.30;99.90;;;;;;5009699;28;20488;-54
2022/03/24 05:45:36;;;;;;;40.90;22.33;;;2.30;99.90;;;;;;5009579;28;20025;-57
2022/03/24 05:48:02;;;;;;;38.72;20.13;;;2.30;99.90;;;;;;5009661;28;20498;-55
2022/03/24 05:50:29;;;;;;;46.22;21.73;;;2.40;99.90;;;;;;5010524;28;20037;-56
2022/03/24 05:52:55;;;;;;;43.10;22.27;;;2.50;99.90;;;;;;5013447;28;21771;-58
2022/03/24 05:55:23;;;;;;;42.55;21.63;;;2.50;99.90;;;;;;5013635;28;20529;-57
2022/03/24 05:57:49;;;;;;;41.55;21.33;;;2.50;99.90;;;;;;5013495;28;20033;-47
2022/03/24 06:00:15;;;;;;;40.22;21.75;;;2.60;99.90;;;;;;5013006;28;20076;-54
2022/03/24 06:02:41;;;;;;;41.17;22.05;;;2.70;99.90;;;;;;5012279;28;20061;-57
2022/03/24 06:05:12;;;;;;;41.35;21.35;;;2.80;99.90;;;;;;5012971;28;20109;-57
2022/03/24 06:07:38;;;;;;;45.47;22.20;;;2.90;99.90;;;;;;5012063;28;20075;-55
2022/03/24 06:10:05;;;;;;;43.10;23.90;;;3.20;99.90;;;;;;5018615;28;20040;-57
2022/03/24 06:12:31;;;;;;;51.38;25.30;;;3.30;99.90;;;;;;5012104;28;20060;-55
2022/03/24 06:14:57;;;;;;;44.85;23.45;;;3.50;99.90;;;;;;5013402;28;20097;-55
2022/03/24 06:17:23;;;;;;;41.78;21.63;;;3.70;99.90;;;;;;5012915;28;20034;-53
2022/03/24 06:19:49;;;;;;;40.22;21.60;;;3.80;99.90;;;;;;4996444;28;20091;-57
2022/03/24 06:22:16;;;;;;;43.40;22.58;;;3.90;99.90;;;;;;5013072;28;20284;-56
2022/03/24 06:24:42;;;;;;;41.50;23.15;;;4.10;99.90;;;;;;5012339;28;20034;-59
2022/03/24 06:27:08;;;;;;;37.97;20.90;;;4.50;99.90;;;;;;5010042;28;20026;-59
2022/03/24 06:29:34;;;;;;;50.90;22.48;;;5.10;99.90;;;;;;5009901;28;20492;-58
2022/03/24 06:32:00;;;;;;;43.25;22.88;;;5.50;99.90;;;;;;5009238;28;20030;-59
2022/03/24 06:34:25;;;;;;;38.30;21.95;;;5.70;99.00;;;;;;5008258;28;20148;-58
2022/03/24 06:36:51;;;;;;;47.40;23.92;;;5.70;98.40;;;;;;5012295;28;20033;-60
2022/03/24 06:39:17;;;;;;;48.67;25.63;;;5.70;98.60;;;;;;5010385;28;20042;-56
2022/03/24 06:41:42;;;;;;;56.03;28.17;;;5.90;98.70;;;;;;5009083;28;20121;-60
2022/03/24 06:44:09;;;;;;;66.07;28.73;;;6.00;98.20;;;;;;5012524;28;20596;-59
2022/03/24 06:46:35;;;;;;;40.10;22.17;;;6.10;98.30;;;;;;5010094;28;20058;-59
2022/03/24 06:49:03;;;;;;;43.33;22.58;;;6.50;97.40;;;;;;5007546;28;20030;-58
2022/03/24 06:51:29;;;;;;;35.33;19.75;;;6.90;96.80;;;;;;5009963;28;20110;-60
2022/03/24 06:53:56;;;;;;;38.78;19.60;;;7.20;96.10;;;;;;5012009;28;20040;-56
2022/03/24 06:56:22;;;;;;;33.83;19.90;;;7.90;94.30;;;;;;5011292;28;20034;-56
2022/03/24 06:58:47;;;;;;;29.02;18.15;;;8.50;94.10;;;;;;5007560;28;20092;-58
2022/03/24 07:01:13;;;;;;;31.75;21.08;;;9.00;92.80;;;;;;5010175;28;20496;-58
2022/03/24 07:03:39;;;;;;;35.40;22.95;;;9.70;91.70;;;;;;5011660;28;20506;-56
2022/03/24 07:06:05;;;;;;;32.00;20.45;;;10.60;90.50;;;;;;5012466;28;20128;-57
2022/03/24 07:08:30;;;;;;;37.10;21.42;;;11.70;86.80;;;;;;5027403;28;20499;-59
2022/03/24 07:10:56;;;;;;;32.70;21.92;;;12.40;84.70;;;;;;5012085;28;20397;-56
2022/03/24 07:13:23;;;;;;;33.53;20.60;;;12.90;82.20;;;;;;5008750;28;20104;-57
2022/03/24 07:15:48;;;;;;;35.60;24.17;;;13.00;81.20;;;;;;5011661;28;20030;-56
2022/03/24 07:18:15;;;;;;;43.05;23.23;;;13.20;79.50;;;;;;5010099;28;20087;-59
2022/03/24 07:20:41;;;;;;;36.58;23.25;;;13.70;79.10;;;;;;4996655;28;20052;-58
2022/03/24 07:23:08;;;;;;;30.17;21.27;;;13.80;77.60;;;;;;5007523;28;20108;-57
2022/03/24 07:25:36;;;;;;;32.58;20.08;;;13.80;77.20;;;;;;4999266;28;20083;-58
2022/03/24 07:28:02;;;;;;;31.65;20.45;;;13.40;78.30;;;;;;5005821;28;20033;-55
2022/03/24 07:30:28;;;;;;;36.65;21.55;;;13.00;78.40;;;;;;5009767;28;20726;-54
2022/03/24 07:32:58;;;;;;;34.33;21.33;;;12.60;78.80;;;;;;5009262;28;20117;-58
2022/03/24 07:35:24;;;;;;;32.17;20.83;;;12.70;79.00;;;;;;5008366;28;20101;-55
2022/03/24 07:37:51;;;;;;;33.75;20.45;;;13.30;78.50;;;;;;5010213;28;20018;-58
2022/03/24 07:40:18;;;;;;;29.13;21.45;;;13.30;77.40;;;;;;5010959;28;20088;-56
2022/03/24 07:42:45;;;;;;;37.50;22.67;;;13.80;75.80;;;;;;5010719;28;20021;-59
2022/03/24 07:45:12;;;;;;;31.83;20.73;;;14.20;74.80;;;;;;5008012;28;20026;-57
2022/03/24 07:48:07;;;;;;;30.13;20.15;;;14.80;72.60;;;;;;5006910;28;20022;-57
2022/03/24 07:50:33;;;;;;;30.98;20.67;;;14.80;72.80;;;;;;5008284;28;20021;-57
2022/03/24 07:53:15;;;;;;;35.72;21.95;;;15.00;73.10;;;;;;5009401;28;20076;-58
2022/03/24 07:55:42;;;;;;;34.03;23.73;;;15.30;71.30;;;;;;5009994;28;20033;-57
2022/03/24 07:58:09;;;;;;;34.05;23.15;;;15.40;68.90;;;;;;5010083;28;20384;-57
2022/03/24 08:00:36;;;;;;;38.15;23.88;;;16.00;67.90;;;;;;5010376;28;20018;-59
2022/03/24 08:03:02;;;;;;;45.10;23.55;;;15.80;68.00;;;;;;5008913;28;20041;-58
2022/03/24 08:05:29;;;;;;;35.78;23.63;;;16.50;66.10;;;;;;5011338;28;20021;-60
2022/03/24 08:07:55;;;;;;;38.85;24.65;;;17.10;64.40;;;;;;5010524;28;20026;-60
2022/03/24 08:10:21;;;;;;;43.35;24.92;;;16.60;64.90;;;;;;5011894;28;20030;-58
2022/03/24 08:12:46;;;;;;;41.88;26.52;;;16.50;65.00;;;;;;5009308;28;20109;-61
2022/03/24 08:15:12;;;;;;;35.67;23.20;;;16.20;65.60;;;;;;5011349;28;20177;-60
2022/03/24 08:17:38;;;;;;;42.53;24.33;;;16.10;65.40;;;;;;5010122;28;20042;-59
2022/03/24 08:20:05;;;;;;;35.40;23.33;;;16.30;65.70;;;;;;4987819;28;20054;-61
2022/03/24 08:22:30;;;;;;;36.45;24.08;;;16.50;65.20;;;;;;5000278;28;20037;-61
2022/03/24 08:24:56;;;;;;;44.80;26.52;;;17.60;64.60;;;;;;5003267;28;20026;-59
2022/03/24 08:27:22;;;;;;;38.47;23.70;;;17.30;63.50;;;;;;4999224;28;20037;-56
2022/03/24 08:29:47;;;;;;;37.40;23.83;;;17.30;64.60;;;;;;5009962;28;20026;-58
2022/03/24 08:32:14;;;;;;;44.40;24.98;;;17.30;65.00;;;;;;5000808;28;20036;-59
2022/03/24 08:34:40;;;;;;;42.72;28.13;;;17.90;62.90;;;;;;5008951;28;20021;-57
2022/03/24 08:37:06;;;;;;;42.05;27.65;;;17.90;61.40;;;;;;5008409;28;20076;-57
2022/03/24 08:39:33;;;;;;;42.72;26.77;;;17.50;62.10;;;;;;5008549;28;20092;-55
2022/03/24 08:41:58;;;;;;;44.20;27.15;;;17.60;62.20;;;;;;4999886;28;20153;-58
2022/03/24 08:44:24;;;;;;;36.65;26.70;;;17.50;62.40;;;;;;5005744;28;20742;-58
2022/03/24 08:46:50;;;;;;;42.00;26.70;;;16.80;64.70;;;;;;5010134;28;20033;-56
2022/03/24 08:49:15;;;;;;;48.63;28.83;;;17.50;64.30;;;;;;5009479;28;20068;-56
2022/03/24 08:51:41;;;;;;;39.08;28.60;;;17.00;63.70;;;;;;5009311;28;20073;-56
2022/03/24 08:54:07;;;;;;;43.67;27.95;;;17.10;64.50;;;;;;5009781;28;20013;-59
2022/03/24 08:56:33;;;;;;;49.38;33.20;;;17.20;64.10;;;;;;5010617;28;20183;-58
2022/03/24 08:58:59;;;;;;;47.22;30.50;;;16.80;64.00;;;;;;5010517;28;20516;-59
2022/03/24 09:01:28;;;;;;;44.95;29.65;;;17.00;63.90;;;;;;5009851;28;20175;-59
2022/03/24 09:03:54;;;;;;;50.83;31.38;;;17.00;63.90;;;;;;5009175;28;20018;-59
2022/03/24 09:06:19;;;;;;;45.58;31.08;;;17.50;63.10;;;;;;5010516;28;20496;-59
2022/03/24 09:08:45;;;;;;;48.72;32.08;;;18.40;61.60;;;;;;5009703;28;20037;-58
2022/03/24 09:11:10;;;;;;;48.28;32.28;;;18.20;62.10;;;;;;5010361;28;20045;-53
2022/03/24 09:13:36;;;;;;;51.40;33.42;;;17.70;61.70;;;;;;5009590;28;20084;-55
2022/03/24 09:16:01;;;;;;;53.28;31.75;;;17.80;62.30;;;;;;5010460;28;20044;-57
2022/03/24 09:18:27;;;;;;;46.13;30.80;;;17.50;62.40;;;;;;5009112;28;20058;-58
2022/03/24 09:20:52;;;;;;;51.15;33.55;;;17.30;62.90;;;;;;4994884;28;20058;-56
2022/03/24 09:23:18;;;;;;;50.20;32.33;;;17.80;62.60;;;;;;5009490;28;20072;-53
2022/03/24 09:25:45;;;;;;;60.20;32.20;;;17.70;62.80;;;;;;5010697;28;20041;-57
2022/03/24 09:28:10;;;;;;;47.90;33.50;;;17.90;62.20;;;;;;5013642;28;20022;-58
2022/03/24 09:30:37;;;;;;;53.20;33.92;;;18.10;62.50;;;;;;5013819;28;20033;-59
2022/03/24 09:33:03;;;;;;;50.63;33.35;;;17.90;60.70;;;;;;5012815;28;20044;-58
2022/03/24 09:35:29;;;;;;;54.47;35.33;;;18.10;62.30;;;;;;5013830;28;20026;-58
2022/03/24 09:37:55;;;;;;;52.78;33.92;;;18.30;62.40;;;;;;5013223;28;20041;-59
2022/03/24 09:40:20;;;;;;;55.85;34.70;;;18.80;61.00;;;;;;5013173;28;20079;-58
2022/03/24 09:42:46;;;;;;;51.80;35.88;;;18.80;62.10;;;;;;5013485;28;20098;-59
2022/03/24 09:45:13;;;;;;;53.67;35.30;;;18.60;62.90;;;;;;5014280;28;20041;-57
2022/03/24 09:47:40;;;;;;;56.30;35.88;;;18.60;62.10;;;;;;5012764;28;20125;-60
2022/03/24 09:50:07;;;;;;;52.05;35.08;;;19.00;61.40;;;;;;5013682;28;20108;-58
2022/03/24 09:52:33;;;;;;;52.20;34.45;;;19.40;60.00;;;;;;5013818;28;20038;-58
2022/03/24 09:54:58;;;;;;;46.65;35.30;;;19.60;60.50;;;;;;5013735;28;20022;-59
2022/03/24 09:57:24;;;;;;;57.33;36.95;;;19.30;61.40;;;;;;5013279;28;20018;-59
2022/03/24 09:59:50;;;;;;;52.95;35.58;;;19.10;62.80;;;;;;5012881;28;20562;-58
2022/03/24 10:02:16;;;;;;;52.50;35.85;;;19.30;61.40;;;;;;5013793;28;20033;-58
2022/03/24 10:04:50;;;;;;;55.55;35.80;;;19.20;61.30;;;;;;5012787;28;20048;-57
2022/03/24 10:07:23;;;;;;;50.97;33.25;;;19.40;61.00;;;;;;5013819;28;20026;-56
2022/03/24 10:09:51;;;;;;;49.50;35.03;;;19.50;60.70;;;;;;5012962;28;20026;-57
2022/03/24 10:12:25;;;;;;;51.55;32.47;;;18.90;61.40;;;;;;5012482;28;21475;-59
2022/03/24 10:15:11;;;;;;;45.92;32.55;;;18.80;62.20;;;;;;5012660;28;20026;-57
2022/03/24 10:17:38;;;;;;;50.55;32.13;;;19.30;62.90;;;;;;5006859;28;20042;-57
2022/03/24 10:20:04;;;;;;;62.63;31.77;;;19.40;61.80;;;;;;5007367;28;20022;-58
2022/03/24 10:22:31;;;;;;;50.67;31.73;;;19.40;61.80;;;;;;4993297;28;20195;-60
2022/03/24 10:24:57;;;;;;;45.03;30.70;;;19.70;61.20;;;;;;5005976;28;20023;-59
2022/03/24 10:27:25;;;;;;;47.53;30.38;;;20.00;61.20;;;;;;5008340;28;20029;-60
2022/03/24 10:29:54;;;;;;;47.30;29.67;;;19.30;61.50;;;;;;5009208;28;20037;-58
2022/03/24 10:32:21;;;;;;;48.13;29.42;;;19.20;61.00;;;;;;5012619;28;20049;-59
2022/03/24 10:34:48;;;;;;;51.38;33.38;;;19.20;62.50;;;;;;5012310;28;20022;-58
2022/03/24 10:37:17;;;;;;;51.35;32.17;;;19.10;59.90;;;;;;5011412;28;20090;-58
2022/03/24 10:40:10;;;;;;;50.92;31.45;;;18.80;60.00;;;;;;5012426;28;20022;-59
2022/03/24 10:42:38;;;;;;;44.85;30.38;;;18.50;59.90;;;;;;5011673;28;20388;-55
2022/03/24 10:45:17;;;;;;;51.20;31.40;;;18.20;58.50;;;;;;5012783;28;20034;-60
2022/03/24 10:47:51;;;;;;;45.80;30.38;;;18.40;60.00;;;;;;5012181;28;20044;-58
2022/03/24 10:50:23;;;;;;;48.08;31.45;;;18.20;60.00;;;;;;5010543;28;20034;-59
2022/03/24 10:52:51;;;;;;;45.22;27.70;;;18.20;59.30;;;;;;5003713;28;20057;-60
2022/03/24 10:55:28;;;;;;;51.47;27.83;;;18.30;59.00;;;;;;5007505;28;20029;-61
2022/03/24 10:57:54;;;;;;;42.70;25.65;;;18.10;59.80;;;;;;5007655;28;20057;-61
2022/03/24 11:00:20;;;;;;;37.17;24.67;;;17.90;58.20;;;;;;5011964;28;20388;-59
2022/03/24 11:02:46;;;;;;;35.20;21.00;;;18.00;57.90;;;;;;5007205;28;20030;-60
2022/03/24 11:05:14;;;;;;;40.70;24.17;;;18.10;56.80;;;;;;5012133;28;20040;-60
2022/03/24 11:07:40;;;;;;;35.97;22.33;;;18.10;56.70;;;;;;5011439;28;20032;-60
2022/03/24 11:10:15;;;;;;;33.05;20.95;;;18.20;56.50;;;;;;5011016;28;20033;-60
2022/03/24 11:12:43;;;;;;;36.92;22.00;;;18.30;55.50;;;;;;5011411;28;20401;-57
2022/03/24 11:15:10;;;;;;;42.60;22.75;;;18.20;56.30;;;;;;5011490;28;20053;-56
2022/03/24 11:17:38;;;;;;;36.22;22.92;;;18.10;56.40;;;;;;4998428;28;20080;-60
2022/03/24 11:20:19;;;;;;;47.80;22.98;;;18.10;55.30;;;;;;5002740;28;20036;-59
2022/03/24 11:23:24;;;;;;;29.13;19.80;;;18.30;56.20;;;;;;4999805;28;20117;-60
2022/03/24 11:25:53;;;;;;;35.08;18.23;;;18.30;54.50;;;;;;4977291;28;20418;-60
2022/03/24 11:28:22;;;;;;;32.80;16.27;;;18.30;54.10;;;;;;4972229;28;20110;-60
2022/03/24 11:30:50;;;;;;;34.80;18.40;;;18.10;53.30;;;;;;4969706;28;20033;-58
2022/03/24 11:33:16;;;;;;;34.85;17.52;;;17.90;54.70;;;;;;4970864;28;20045;-60
2022/03/24 11:35:43;;;;;;;37.35;19.88;;;18.00;55.50;;;;;;4969921;28;20027;-58
2022/03/24 11:38:09;;;;;;;36.67;18.27;;;18.00;54.70;;;;;;4971371;28;20049;-58
2022/03/24 11:40:36;;;;;;;37.40;16.88;;;17.90;52.70;;;;;;4970228;28;20027;-57
2022/03/24 11:43:14;;;;;;;37.30;17.77;;;18.00;52.50;;;;;;4966090;28;20045;-58
2022/03/24 11:45:49;;;;;;;40.78;20.02;;;17.90;53.70;;;;;;4969596;28;20043;-60
2022/03/24 11:48:16;;;;;;;33.88;18.38;;;17.90;53.00;;;;;;4969983;28;20026;-58
2022/03/24 11:50:48;;;;;;;33.70;20.70;;;17.80;53.20;;;;;;4972719;28;20038;-59
2022/03/24 11:53:19;;;;;;;42.85;22.00;;;17.70;54.10;;;;;;4970088;28;20027;-60
2022/03/24 11:56:05;;;;;;;43.30;20.20;;;17.70;54.30;;;;;;4966441;28;20030;-60
2022/03/24 11:58:44;;;;;;;39.00;20.42;;;17.80;52.70;;;;;;4975128;28;20046;-60
2022/03/24 12:01:23;;;;;;;36.10;22.45;;;17.60;54.30;;;;;;4988271;28;20047;-60
2022/03/24 12:04:10;;;;;;;38.72;20.45;;;17.60;54.40;;;;;;4986771;28;20032;-59
2022/03/24 12:06:58;;;;;;;34.58;19.98;;;17.60;54.40;;;;;;4986234;28;20033;-60
2022/03/24 12:09:28;;;;;;;42.28;16.92;;;17.60;55.70;;;;;;4984353;28;20076;-60
2022/03/24 12:12:03;;;;;;;36.50;19.90;;;17.60;55.60;;;;;;4973290;28;22396;-60
2022/03/24 12:14:32;;;;;;;37.47;20.08;;;17.60;55.60;;;;;;4986645;28;20460;-58
2022/03/24 12:17:02;;;;;;;43.65;23.25;;;17.70;56.30;;;;;;4967950;28;20033;-54
2022/03/24 12:19:44;;;;;;;40.28;21.17;;;17.70;56.20;;;;;;4983515;28;20019;-60
2022/03/24 12:22:25;;;;;;;38.97;23.15;;;17.70;56.80;;;;;;4960501;28;20065;-55
2022/03/24 12:25:11;;;;;;;41.97;22.75;;;17.70;55.70;;;;;;4988040;28;20022;-55
2022/03/24 12:28:01;;;;;;;37.08;21.42;;;17.80;55.40;;;;;;4973146;28;20117;-57
2022/03/24 12:30:39;;;;;;;42.20;20.77;;;17.80;54.70;;;;;;4988254;28;20082;-60
2022/03/24 12:33:32;;;;;;;35.22;22.48;;;17.80;54.90;;;;;;4987375;28;20097;-54
2022/03/24 12:35:58;;;;;;;43.88;20.35;;;17.70;54.50;;;;;;4998496;28;20564;-57
2022/03/24 12:38:31;;;;;;;40.40;21.75;;;17.60;55.70;;;;;;4996751;28;20019;-59
2022/03/24 12:41:11;;;;;;;35.45;20.13;;;17.50;54.40;;;;;;4991888;28;20054;-60